Time;durP1;ratioP1;P1;durP2;ratioP2;P2;SDS_P1;SDS_P2;PMS_P1;PMS_P2;Temp;Humidity;BMP_temperature;BMP_pressure;BME280_temperature;BME280_humidity;BME280_pressure;Samples;Min_cycle;Max_cycle;Signal;HPM_P1;HPM_P2
2020/12/29 00:06:33;;;;;;;0.20;0.10;;;10.00;99.90;;;;;;20696617;28;20305;-74
2020/12/29 00:16:37;;;;;;;0.20;0.10;;;9.80;99.90;;;;;;20695211;28;20229;-74
2020/12/29 00:26:40;;;;;;;2.43;0.20;;;9.80;99.90;;;;;;20701722;28;20737;-75
2020/12/29 00:36:43;;;;;;;0.30;0.20;;;9.60;99.90;;;;;;20711120;28;20361;-75
2020/12/29 00:46:46;;;;;;;2.20;0.87;;;9.80;99.90;;;;;;20711898;28;20195;-77
2020/12/29 00:56:49;;;;;;;0.20;0.10;;;9.70;99.90;;;;;;20709839;28;20523;-77
2020/12/29 01:06:52;;;;;;;0.60;0.60;;;9.50;99.90;;;;;;20709221;28;20219;-75
2020/12/29 01:16:55;;;;;;;2.83;0.60;;;9.20;99.90;;;;;;20707620;28;20289;-75
2020/12/29 01:26:58;;;;;;;0.37;0.37;;;9.00;99.90;;;;;;20708186;28;20195;-76
2020/12/29 01:37:01;;;;;;;0.23;0.23;;;9.10;99.90;;;;;;20708439;28;20230;-75
2020/12/29 01:47:07;;;;;;;0.20;0.10;;;9.10;99.90;;;;;;20704568;28;21030;-75
2020/12/29 01:57:11;;;;;;;0.40;0.40;;;9.30;99.90;;;;;;20704589;28;20583;-74
2020/12/29 02:07:15;;;;;;;0.20;0.00;;;9.10;99.90;;;;;;20706191;28;21106;-75
2020/12/29 02:17:18;;;;;;;0.20;0.20;;;9.50;99.90;;;;;;20703594;28;20218;-75
2020/12/29 02:27:24;;;;;;;1.50;0.60;;;9.20;99.90;;;;;;20704214;28;20203;-74
2020/12/29 02:37:26;;;;;;;0.30;0.30;;;9.00;99.90;;;;;;20702358;28;20245;-75
2020/12/29 02:47:30;;;;;;;0.47;0.40;;;9.00;99.90;;;;;;20703361;28;20563;-75
2020/12/29 02:57:33;;;;;;;0.77;0.40;;;8.90;99.90;;;;;;20700765;28;20230;-75
2020/12/29 03:07:37;;;;;;;0.30;0.10;;;9.30;99.90;;;;;;20713672;23;20241;-75
2020/12/29 03:17:39;;;;;;;1.03;0.63;;;9.10;99.90;;;;;;20698614;28;20233;-72
2020/12/29 03:27:43;;;;;;;0.30;0.30;;;9.20;99.90;;;;;;20700060;28;20206;-79
2020/12/29 03:37:45;;;;;;;0.20;0.10;;;9.40;99.90;;;;;;20696436;28;20602;-75
2020/12/29 03:47:49;;;;;;;1.47;0.63;;;9.50;99.90;;;;;;20696814;28;20210;-73
2020/12/29 03:57:51;;;;;;;0.20;0.10;;;9.30;99.90;;;;;;20693841;28;20695;-72
2020/12/29 04:07:55;;;;;;;0.37;0.37;;;9.30;99.90;;;;;;20696263;28;20903;-73
2020/12/29 04:17:57;;;;;;;0.20;0.10;;;8.90;99.90;;;;;;20693244;28;20233;-73
2020/12/29 04:28:01;;;;;;;0.20;0.10;;;8.90;99.90;;;;;;20692405;28;20195;-72
2020/12/29 04:38:04;;;;;;;0.20;0.10;;;8.60;99.90;;;;;;20695508;28;20219;-72
2020/12/29 04:48:07;;;;;;;0.20;0.10;;;8.60;99.90;;;;;;20689867;28;20198;-72
2020/12/29 04:58:10;;;;;;;1.50;0.77;;;8.80;99.90;;;;;;20692293;28;20230;-73
2020/12/29 05:08:13;;;;;;;0.20;0.10;;;8.80;99.90;;;;;;20692055;28;20214;-73
2020/12/29 05:18:16;;;;;;;1.27;0.43;;;8.40;99.90;;;;;;20701657;28;20687;-73
2020/12/29 05:28:19;;;;;;;0.20;0.10;;;8.30;99.90;;;;;;20703889;28;20191;-71
2020/12/29 05:38:22;;;;;;;0.20;0.20;;;8.50;99.90;;;;;;20703712;28;20231;-71
2020/12/29 05:48:25;;;;;;;0.20;0.20;;;8.80;99.90;;;;;;20703130;28;20194;-72
2020/12/29 05:58:28;;;;;;;0.40;0.40;;;8.80;99.90;;;;;;20703572;28;20222;-74
2020/12/29 06:08:35;;;;;;;0.20;0.00;;;8.90;99.90;;;;;;20702596;28;20235;-71
2020/12/29 06:18:43;;;;;;;0.20;0.10;;;9.10;99.90;;;;;;20702656;28;20229;-72
2020/12/29 06:28:49;;;;;;;0.20;0.10;;;9.00;99.90;;;;;;20701044;28;20465;-72
2020/12/29 06:38:52;;;;;;;0.20;0.10;;;8.90;99.90;;;;;;20698353;28;20573;-71
2020/12/29 06:48:57;;;;;;;0.70;0.30;;;8.90;99.90;;;;;;20700853;28;20635;-71
2020/12/29 06:59:02;;;;;;;0.20;0.10;;;8.90;99.90;;;;;;20696976;28;20230;-73
2020/12/29 07:09:26;;;;;;;0.20;0.10;;;8.60;99.90;;;;;;20695713;28;20468;-75
2020/12/29 07:19:28;;;;;;;0.20;0.10;;;8.60;99.90;;;;;;20698480;28;20581;-76
2020/12/29 07:29:33;;;;;;;0.47;0.47;;;8.60;99.90;;;;;;20691965;28;20198;-73
2020/12/29 07:39:36;;;;;;;0.20;0.10;;;8.60;99.90;;;;;;20692833;28;20242;-73
2020/12/29 07:49:39;;;;;;;0.20;0.13;;;8.50;99.90;;;;;;20690634;28;20199;-71
2020/12/29 07:59:42;;;;;;;0.20;0.13;;;8.80;99.90;;;;;;20692478;28;20227;-72
2020/12/29 08:09:46;;;;;;;0.20;0.10;;;8.70;99.90;;;;;;20690720;28;20492;-76
2020/12/29 08:19:59;;;;;;;0.93;0.70;;;8.70;99.90;;;;;;20695333;28;20244;-73
2020/12/29 08:30:05;;;;;;;0.30;0.20;;;8.90;99.90;;;;;;20693037;28;20202;-72
2020/12/29 08:40:16;;;;;;;0.30;0.30;;;9.30;99.90;;;;;;20689612;28;20234;-72
2020/12/29 08:50:29;;;;;;;0.23;0.13;;;9.40;99.90;;;;;;20697041;28;20738;-73
2020/12/29 09:00:32;;;;;;;1.73;0.40;;;9.50;99.90;;;;;;20706263;28;20233;-74
2020/12/29 09:10:36;;;;;;;0.50;0.50;;;9.50;99.90;;;;;;20706727;28;20280;-75
2020/12/29 09:20:38;;;;;;;0.20;0.20;;;9.80;99.90;;;;;;20709182;28;20235;-77
2020/12/29 09:30:44;;;;;;;0.30;0.27;;;10.20;99.90;;;;;;20701467;28;20230;-75
2020/12/29 09:40:49;;;;;;;0.20;0.10;;;10.70;99.90;;;;;;20703631;28;20647;-72
2020/12/29 09:50:53;;;;;;;0.20;0.17;;;10.90;99.90;;;;;;20700580;28;20207;-73
2020/12/29 10:00:56;;;;;;;0.20;0.10;;;10.50;99.90;;;;;;20701288;28;20756;-73
2020/12/29 10:10:59;;;;;;;0.20;0.10;;;10.10;99.90;;;;;;20698611;28;20294;-74
2020/12/29 10:21:01;;;;;;;0.30;0.20;;;10.20;99.90;;;;;;20701625;28;20649;-74
2020/12/29 10:31:07;;;;;;;0.67;0.50;;;11.30;99.90;;;;;;20699341;28;20199;-75
2020/12/29 10:41:10;;;;;;;0.20;0.10;;;11.70;99.90;;;;;;20697095;28;20194;-75
2020/12/29 10:51:18;;;;;;;3.67;0.27;;;12.40;99.90;;;;;;20697256;28;20199;-74
2020/12/29 11:01:22;;;;;;;0.20;0.10;;;11.90;99.90;;;;;;20699881;28;20290;-74
2020/12/29 11:11:25;;;;;;;0.50;0.50;;;11.70;99.90;;;;;;20695491;28;20195;-75
2020/12/29 11:21:28;;;;;;;0.20;0.10;;;12.40;99.90;;;;;;20697180;28;20198;-72
2020/12/29 11:31:32;;;;;;;0.63;0.40;;;12.80;99.90;;;;;;20693177;28;20641;-82
2020/12/29 11:41:34;;;;;;;0.87;0.20;;;14.00;99.90;;;;;;20695075;28;20195;-73
2020/12/29 11:51:38;;;;;;;0.20;0.10;;;12.80;99.90;;;;;;20693985;28;20525;-77
2020/12/29 12:01:40;;;;;;;1.93;0.30;;;13.00;99.90;;;;;;20691642;28;20237;-74
2020/12/29 12:11:44;;;;;;;0.83;0.43;;;12.80;99.90;;;;;;20688303;28;20301;-81
2020/12/29 12:21:46;;;;;;;1.57;0.60;;;13.70;99.90;;;;;;20696873;28;20207;-76
2020/12/29 12:31:50;;;;;;;0.30;0.20;;;13.90;99.90;;;;;;20709945;28;20214;-76
2020/12/29 12:41:53;;;;;;;0.97;0.60;;;14.20;99.90;;;;;;20712322;28;20636;-71
2020/12/29 12:51:56;;;;;;;5.70;0.43;;;15.20;99.90;;;;;;20708414;28;20211;-77
2020/12/29 13:01:58;;;;;;;5.47;0.60;;;15.30;99.90;;;;;;20711647;28;20231;-75
2020/12/29 13:12:02;;;;;;;0.20;0.20;;;16.00;99.90;;;;;;20702790;28;20234;-80
2020/12/29 13:22:05;;;;;;;0.20;0.20;;;16.50;99.90;;;;;;20703354;28;20617;-76
2020/12/29 13:32:08;;;;;;;0.27;0.13;;;15.00;99.90;;;;;;20703235;28;20226;-74
2020/12/29 13:42:11;;;;;;;0.20;0.10;;;15.50;99.90;;;;;;20706097;28;20218;-75
2020/12/29 13:52:15;;;;;;;0.20;0.13;;;14.60;99.90;;;;;;20700292;28;20682;-70
2020/12/29 14:02:17;;;;;;;0.20;0.10;;;16.60;99.90;;;;;;20703120;28;20231;-72
2020/12/29 14:12:21;;;;;;;0.20;0.20;;;17.00;99.90;;;;;;20698723;28;20233;-74
2020/12/29 14:22:23;;;;;;;0.20;0.10;;;14.80;99.90;;;;;;20701119;28;20198;-73
2020/12/29 14:32:28;;;;;;;0.50;0.43;;;15.30;99.90;;;;;;20695562;28;20215;-69
2020/12/29 14:42:31;;;;;;;0.20;0.10;;;17.10;99.90;;;;;;20696080;28;20765;-79
2020/12/29 14:52:34;;;;;;;0.20;0.20;;;15.90;99.90;;;;;;20695135;28;20233;-77
2020/12/29 15:02:36;;;;;;;0.20;0.10;;;14.80;99.90;;;;;;20696567;28;20223;-71
2020/12/29 15:12:40;;;;;;;0.93;0.30;;;13.20;99.90;;;;;;20654745;28;20667;-79
2020/12/29 15:22:42;;;;;;;0.20;0.10;;;12.70;99.90;;;;;;20684231;28;20209;-75
2020/12/29 15:32:46;;;;;;;0.20;0.10;;;13.00;99.90;;;;;;20650667;28;20211;-71
2020/12/29 15:42:48;;;;;;;0.60;0.23;;;12.80;99.90;;;;;;20632037;28;20203;-70
2020/12/29 15:52:52;;;;;;;1.40;0.20;;;12.70;99.90;;;;;;20691102;28;20238;-70
2020/12/29 16:02:54;;;;;;;0.27;0.20;;;12.00;99.90;;;;;;20618656;28;20271;-72
2020/12/29 16:12:58;;;;;;;1.17;0.23;;;11.80;99.90;;;;;;20611561;28;20231;-73
2020/12/29 16:23:01;;;;;;;0.20;0.20;;;11.60;99.90;;;;;;20687070;28;20199;-71
2020/12/29 16:33:06;;;;;;;0.20;0.10;;;11.50;99.90;;;;;;20681434;28;20226;-75
2020/12/29 16:43:10;;;;;;;0.40;0.40;;;11.40;99.90;;;;;;20687487;28;20686;-75
2020/12/29 16:53:14;;;;;;;0.20;0.10;;;11.30;99.90;;;;;;20682872;28;20707;-72
2020/12/29 17:03:16;;;;;;;0.20;0.20;;;11.20;99.90;;;;;;20688552;28;20316;-72
2020/12/29 17:13:20;;;;;;;0.20;0.17;;;11.10;99.90;;;;;;20670913;28;20227;-74
2020/12/29 17:23:22;;;;;;;0.23;0.20;;;11.00;99.90;;;;;;20688572;28;20554;-73
2020/12/29 17:33:26;;;;;;;1.07;0.30;;;10.80;99.90;;;;;;20647204;28;20223;-72
2020/12/29 17:43:29;;;;;;;0.20;0.10;;;10.80;99.90;;;;;;20631534;28;20195;-73
2020/12/29 17:53:32;;;;;;;0.20;0.20;;;10.60;99.90;;;;;;20670956;28;20234;-74
2020/12/29 18:03:35;;;;;;;0.40;0.30;;;10.60;99.90;;;;;;20693275;28;20230;-84
2020/12/29 18:13:38;;;;;;;0.40;0.20;;;10.50;99.90;;;;;;20696122;28;20231;-74
2020/12/29 18:23:41;;;;;;;0.67;0.27;;;10.30;99.90;;;;;;20692414;28;20228;-74
2020/12/29 18:33:46;;;;;;;2.07;0.43;;;10.30;99.90;;;;;;20697948;28;20227;-72
2020/12/29 18:43:49;;;;;;;1.80;0.93;;;10.20;99.90;;;;;;20685310;28;20950;-72
2020/12/29 18:53:53;;;;;;;0.20;0.20;;;10.20;99.90;;;;;;20688847;28;20802;-71
2020/12/29 19:03:56;;;;;;;0.30;0.30;;;10.10;99.90;;;;;;20693016;28;20223;-73
2020/12/29 19:14:00;;;;;;;0.30;0.30;;;10.10;99.90;;;;;;20696156;28;20223;-71
2020/12/29 19:24:02;;;;;;;0.23;0.20;;;9.80;99.90;;;;;;20693847;28;20214;-72
2020/12/29 19:34:06;;;;;;;0.73;0.70;;;9.70;99.90;;;;;;20695522;28;20245;-78
2020/12/29 19:44:08;;;;;;;8.03;1.00;;;9.40;99.90;;;;;;20693193;28;20199;-74
2020/12/29 19:54:12;;;;;;;0.37;0.37;;;9.00;99.90;;;;;;20654547;28;20222;-73
2020/12/29 20:04:14;;;;;;;0.20;0.10;;;8.90;99.90;;;;;;20690272;28;20227;-70
2020/12/29 20:14:18;;;;;;;1.87;1.47;;;8.80;99.90;;;;;;20689550;28;20396;-71
2020/12/29 20:24:20;;;;;;;1.10;0.97;;;8.90;99.90;;;;;;20690745;28;20201;-70
2020/12/29 20:34:23;;;;;;;0.73;0.53;;;8.10;99.90;;;;;;20690543;28;20226;-71
2020/12/29 20:44:26;;;;;;;1.70;0.47;;;7.90;99.90;;;;;;20689676;28;20184;-71
2020/12/29 20:54:29;;;;;;;1.27;1.17;;;7.50;99.90;;;;;;20697186;28;21019;-71
2020/12/29 21:04:32;;;;;;;4.63;0.97;;;7.20;99.90;;;;;;20702925;28;20691;-72
2020/12/29 21:14:35;;;;;;;3.60;1.27;;;7.10;99.90;;;;;;20705342;28;20489;-73
2020/12/29 21:24:38;;;;;;;4.77;1.67;;;7.00;99.90;;;;;;20700911;28;20194;-72
2020/12/29 21:34:42;;;;;;;1.70;1.03;;;6.60;99.90;;;;;;20701249;28;20241;-72
2020/12/29 21:44:45;;;;;;;0.30;0.30;;;6.20;99.90;;;;;;20702023;28;20210;-72
2020/12/29 21:54:50;;;;;;;3.83;1.07;;;6.70;99.90;;;;;;20699765;28;20214;-74
2020/12/29 22:04:52;;;;;;;4.93;0.90;;;6.20;99.90;;;;;;20701110;28;20231;-73
2020/12/29 22:14:56;;;;;;;0.63;0.57;;;5.60;99.90;;;;;;20698878;28;20237;-74
2020/12/29 22:24:59;;;;;;;1.50;0.50;;;5.70;99.90;;;;;;20699311;28;20199;-75
2020/12/29 22:35:03;;;;;;;0.90;0.77;;;5.40;99.90;;;;;;20691530;28;20884;-73
2020/12/29 22:45:05;;;;;;;0.20;0.10;;;5.20;99.90;;;;;;20695375;28;20198;-73
2020/12/29 22:55:28;;;;;;;0.47;0.40;;;5.20;99.90;;;;;;20693154;28;20352;-72
2020/12/29 23:05:31;;;;;;;1.00;0.90;;;5.30;99.90;;;;;;20721575;28;20341;-72
2020/12/29 23:15:34;;;;;;;0.47;0.43;;;4.70;99.90;;;;;;20692514;28;20304;-72
2020/12/29 23:25:37;;;;;;;0.20;0.20;;;5.00;99.90;;;;;;20696182;28;20407;-72
2020/12/29 23:35:42;;;;;;;0.40;0.40;;;4.10;99.90;;;;;;20693824;28;20231;-74
2020/12/29 23:45:45;;;;;;;1.70;0.63;;;4.80;99.90;;;;;;20695574;28;20407;-75
2020/12/29 23:55:48;;;;;;;0.20;0.20;;;3.70;99.90;;;;;;20693086;28;20233;-73
